Startpagina
METAR-TAF:

METAR-TAF

Vliegvelden :

Flughafen Engadin

Sankt Moritz, Zwitserland

breedte: 46-32-03N, lengte: 9-53-03E, hoogte: 1707 m

Actueel weer

Dit bericht is 25 minuten geleden gemaakt, om 19:20 UTC
Wind 5 kt uit het zuiden
Temperatuur 13°C
Vochtigheid 88%
Druk 1027 hPa
Zicht 10 km of meer
Gebroken wolken op 6000 ft

METAR: LSZS 181920Z AUTO 17005KT 9999 BKN060 13/11 Q1027

Tijdstip: 21:45 (19:45 UTC)

Verwachting

Dit bericht is 5 uur en het 20 minuten geleden gemaakt, om 14:25 UTC
Verwachting geldig van 18 om 15 UTC tot 18 om 24 UTC
Wind 13 kt uit het zuidwesten
Zicht 10 km of meer
Verspreide wolken op 7500 ft
Wijzigt naar
van 18 om 17 UTC tot 18 om 19 UTC
Wind 3 kt uit variabele richting

TAF: LSZS 181425Z 1815/1824 22013KT 9999 SCT075 TX19/1815Z BECMG 1817/1819 VRB03KT

Waarnemingen en weersverwachtingen van meer dan 4000 vliegvelden (METAR en TAF).

De beschikbare stations zijn de gele en rode punten op de kaart.

Ga met uw muis naar het station om de naam te zien.

Klik dan om waarnemingen en weersverwachtingen te zien.

kaart wijzigen: klik op de groene knoppen met een zwart kruis om in te zoomen, op de groene knop met een streepje om uit te zoomen of op de groene pijlen voor aangrenzende kaarten.


METAR-TAF: